sensor_id;sensor_type;location;lat;lon;timestamp;temperature;humidity
19555;DHT22;9924;50.828;6.440;2023-02-02T00:00:58;6.80;99.90
19555;DHT22;9924;50.828;6.440;2023-02-02T00:03:43;6.80;99.90
19555;DHT22;9924;50.828;6.440;2023-02-02T00:06:29;6.80;99.90
19555;DHT22;9924;50.828;6.440;2023-02-02T00:09:17;6.80;99.90
19555;DHT22;9924;50.828;6.440;2023-02-02T00:12:02;6.90;99.90
19555;DHT22;9924;50.828;6.440;2023-02-02T00:14:46;6.90;99.90
19555;DHT22;9924;50.828;6.440;2023-02-02T00:17:33;6.90;99.90
19555;DHT22;9924;50.828;6.440;2023-02-02T00:20:18;6.90;99.90
19555;DHT22;9924;50.828;6.440;2023-02-02T00:23:03;6.90;99.90
19555;DHT22;9924;50.828;6.440;2023-02-02T00:25:50;6.90;99.90
19555;DHT22;9924;50.828;6.440;2023-02-02T00:28:35;6.90;99.90
19555;DHT22;9924;50.828;6.440;2023-02-02T00:31:19;6.90;99.90
19555;DHT22;9924;50.828;6.440;2023-02-02T00:34:04;6.90;99.90
19555;DHT22;9924;50.828;6.440;2023-02-02T00:36:49;6.90;99.90
19555;DHT22;9924;50.828;6.440;2023-02-02T00:39:33;6.90;99.90
19555;DHT22;9924;50.828;6.440;2023-02-02T00:42:18;6.90;99.90
19555;DHT22;9924;50.828;6.440;2023-02-02T00:45:03;6.90;99.90
19555;DHT22;9924;50.828;6.440;2023-02-02T00:48:00;6.90;99.90
19555;DHT22;9924;50.828;6.440;2023-02-02T00:50:45;7.00;99.90
19555;DHT22;9924;50.828;6.440;2023-02-02T00:53:29;6.90;99.90
19555;DHT22;9924;50.828;6.440;2023-02-02T00:56:22;6.90;99.90
19555;DHT22;9924;50.828;6.440;2023-02-02T00:59:10;6.90;99.90
19555;DHT22;9924;50.828;6.440;2023-02-02T01:01:55;6.90;99.90
19555;DHT22;9924;50.828;6.440;2023-02-02T01:04:40;6.90;99.90
19555;DHT22;9924;50.828;6.440;2023-02-02T01:07:24;6.90;99.90
19555;DHT22;9924;50.828;6.440;2023-02-02T01:10:14;6.90;99.90
19555;DHT22;9924;50.828;6.440;2023-02-02T01:13:03;6.90;99.90
19555;DHT22;9924;50.828;6.440;2023-02-02T01:15:48;6.90;99.90
19555;DHT22;9924;50.828;6.440;2023-02-02T01:18:41;6.90;99.90
19555;DHT22;9924;50.828;6.440;2023-02-02T01:21:25;6.90;99.90
19555;DHT22;9924;50.828;6.440;2023-02-02T01:24:09;7.00;99.90
19555;DHT22;9924;50.828;6.440;2023-02-02T01:26:54;7.00;99.90
19555;DHT22;9924;50.828;6.440;2023-02-02T01:29:39;7.00;99.90
19555;DHT22;9924;50.828;6.440;2023-02-02T01:32:23;7.00;99.90
19555;DHT22;9924;50.828;6.440;2023-02-02T01:35:07;7.10;99.90
19555;DHT22;9924;50.828;6.440;2023-02-02T01:37:52;7.10;99.90
19555;DHT22;9924;50.828;6.440;2023-02-02T01:40:47;7.10;99.90
19555;DHT22;9924;50.828;6.440;2023-02-02T01:46:33;7.20;99.90
19555;DHT22;9924;50.828;6.440;2023-02-02T01:49:19;7.20;99.90
19555;DHT22;9924;50.828;6.440;2023-02-02T01:52:04;7.10;99.90
19555;DHT22;9924;50.828;6.440;2023-02-02T01:54:56;7.10;99.90
19555;DHT22;9924;50.828;6.440;2023-02-02T02:01:08;7.10;99.90
19555;DHT22;9924;50.828;6.440;2023-02-02T02:03:53;7.10;99.90
19555;DHT22;9924;50.828;6.440;2023-02-02T02:06:38;7.10;99.90
19555;DHT22;9924;50.828;6.440;2023-02-02T02:09:23;7.10;99.90
19555;DHT22;9924;50.828;6.440;2023-02-02T02:12:14;7.10;99.90
19555;DHT22;9924;50.828;6.440;2023-02-02T02:14:59;7.10;99.90
19555;DHT22;9924;50.828;6.440;2023-02-02T02:18:21;7.10;99.90
19555;DHT22;9924;50.828;6.440;2023-02-02T02:21:41;7.00;99.90
19555;DHT22;9924;50.828;6.440;2023-02-02T02:25:04;7.00;99.90
19555;DHT22;9924;50.828;6.440;2023-02-02T02:31:43;7.10;99.90
19555;DHT22;9924;50.828;6.440;2023-02-02T02:43:22;7.10;99.90
19555;DHT22;9924;50.828;6.440;2023-02-02T02:46:08;7.10;99.90
19555;DHT22;9924;50.828;6.440;2023-02-02T02:48:56;7.00;99.90
19555;DHT22;9924;50.828;6.440;2023-02-02T03:03:24;7.10;99.90
19555;DHT22;9924;50.828;6.440;2023-02-02T03:09:36;7.10;99.90
19555;DHT22;9924;50.828;6.440;2023-02-02T03:12:23;7.10;99.90
19555;DHT22;9924;50.828;6.440;2023-02-02T03:15:08;7.10;99.90
19555;DHT22;9924;50.828;6.440;2023-02-02T03:17:52;7.00;99.90
19555;DHT22;9924;50.828;6.440;2023-02-02T03:20:37;7.00;99.90
19555;DHT22;9924;50.828;6.440;2023-02-02T03:23:24;7.00;99.90
19555;DHT22;9924;50.828;6.440;2023-02-02T03:26:08;7.10;99.90
19555;DHT22;9924;50.828;6.440;2023-02-02T03:28:54;7.10;99.90
19555;DHT22;9924;50.828;6.440;2023-02-02T03:31:40;7.10;99.90
19555;DHT22;9924;50.828;6.440;2023-02-02T03:34:24;7.10;99.90
19555;DHT22;9924;50.828;6.440;2023-02-02T03:37:08;7.10;99.90
19555;DHT22;9924;50.828;6.440;2023-02-02T03:39:53;7.00;99.90
19555;DHT22;9924;50.828;6.440;2023-02-02T03:42:37;7.00;99.90
19555;DHT22;9924;50.828;6.440;2023-02-02T03:45:22;7.00;99.90
19555;DHT22;9924;50.828;6.440;2023-02-02T03:48:06;7.00;99.90
19555;DHT22;9924;50.828;6.440;2023-02-02T03:50:51;7.00;99.90
19555;DHT22;9924;50.828;6.440;2023-02-02T03:53:36;7.00;99.90
19555;DHT22;9924;50.828;6.440;2023-02-02T03:56:20;7.00;99.90
19555;DHT22;9924;50.828;6.440;2023-02-02T03:59:05;6.90;99.90
19555;DHT22;9924;50.828;6.440;2023-02-02T04:01:49;6.90;99.90
19555;DHT22;9924;50.828;6.440;2023-02-02T04:04:33;6.90;99.90
19555;DHT22;9924;50.828;6.440;2023-02-02T04:07:17;6.90;99.90
19555;DHT22;9924;50.828;6.440;2023-02-02T04:10:03;6.90;99.90
19555;DHT22;9924;50.828;6.440;2023-02-02T04:12:47;6.90;99.90
19555;DHT22;9924;50.828;6.440;2023-02-02T04:15:31;7.00;99.90
19555;DHT22;9924;50.828;6.440;2023-02-02T04:18:16;7.00;99.90
19555;DHT22;9924;50.828;6.440;2023-02-02T04:21:00;7.00;99.90
19555;DHT22;9924;50.828;6.440;2023-02-02T04:23:45;7.10;99.90
19555;DHT22;9924;50.828;6.440;2023-02-02T04:26:29;7.10;99.90
19555;DHT22;9924;50.828;6.440;2023-02-02T04:29:13;7.00;99.90
19555;DHT22;9924;50.828;6.440;2023-02-02T04:31:57;7.10;99.90
19555;DHT22;9924;50.828;6.440;2023-02-02T04:34:42;7.10;99.90
19555;DHT22;9924;50.828;6.440;2023-02-02T04:37:30;7.10;99.90
19555;DHT22;9924;50.828;6.440;2023-02-02T04:40:14;7.10;99.90
19555;DHT22;9924;50.828;6.440;2023-02-02T04:42:59;7.10;99.90
19555;DHT22;9924;50.828;6.440;2023-02-02T04:45:43;7.10;99.90
19555;DHT22;9924;50.828;6.440;2023-02-02T04:48:28;7.10;99.90
19555;DHT22;9924;50.828;6.440;2023-02-02T04:51:13;7.10;99.90
19555;DHT22;9924;50.828;6.440;2023-02-02T04:53:58;7.00;99.90
19555;DHT22;9924;50.828;6.440;2023-02-02T04:56:42;7.10;99.90
19555;DHT22;9924;50.828;6.440;2023-02-02T04:59:28;7.10;99.90
19555;DHT22;9924;50.828;6.440;2023-02-02T05:02:13;7.00;99.90
19555;DHT22;9924;50.828;6.440;2023-02-02T05:04:57;7.00;99.90
19555;DHT22;9924;50.828;6.440;2023-02-02T05:07:41;7.00;99.90
19555;DHT22;9924;50.828;6.440;2023-02-02T05:10:26;7.00;99.90
19555;DHT22;9924;50.828;6.440;2023-02-02T05:13:10;7.00;99.90
19555;DHT22;9924;50.828;6.440;2023-02-02T05:15:54;7.00;99.90
19555;DHT22;9924;50.828;6.440;2023-02-02T05:18:40;7.00;99.90
19555;DHT22;9924;50.828;6.440;2023-02-02T05:21:24;7.00;99.90
19555;DHT22;9924;50.828;6.440;2023-02-02T05:24:09;7.00;99.90
19555;DHT22;9924;50.828;6.440;2023-02-02T05:26:54;7.00;99.90
19555;DHT22;9924;50.828;6.440;2023-02-02T05:29:41;7.00;99.90
19555;DHT22;9924;50.828;6.440;2023-02-02T05:32:26;7.00;99.90
19555;DHT22;9924;50.828;6.440;2023-02-02T05:35:12;7.00;99.90
19555;DHT22;9924;50.828;6.440;2023-02-02T05:37:56;7.00;99.90
19555;DHT22;9924;50.828;6.440;2023-02-02T05:40:41;7.00;99.90
19555;DHT22;9924;50.828;6.440;2023-02-02T05:43:30;7.00;99.90
19555;DHT22;9924;50.828;6.440;2023-02-02T05:46:15;7.00;99.90
19555;DHT22;9924;50.828;6.440;2023-02-02T05:48:59;6.90;99.90
19555;DHT22;9924;50.828;6.440;2023-02-02T05:51:50;6.90;99.90
19555;DHT22;9924;50.828;6.440;2023-02-02T05:54:36;6.90;99.90
19555;DHT22;9924;50.828;6.440;2023-02-02T05:57:21;6.90;99.90
19555;DHT22;9924;50.828;6.440;2023-02-02T06:00:15;6.90;99.90
19555;DHT22;9924;50.828;6.440;2023-02-02T06:02:59;6.80;99.90
19555;DHT22;9924;50.828;6.440;2023-02-02T06:05:44;6.90;99.90
19555;DHT22;9924;50.828;6.440;2023-02-02T06:08:28;6.90;99.90
19555;DHT22;9924;50.828;6.440;2023-02-02T06:11:15;6.90;99.90
19555;DHT22;9924;50.828;6.440;2023-02-02T06:14:03;6.90;99.90
19555;DHT22;9924;50.828;6.440;2023-02-02T06:16:47;6.90;99.90
19555;DHT22;9924;50.828;6.440;2023-02-02T06:19:31;6.90;99.90
19555;DHT22;9924;50.828;6.440;2023-02-02T06:22:16;6.90;99.90
19555;DHT22;9924;50.828;6.440;2023-02-02T06:25:00;6.90;99.90
19555;DHT22;9924;50.828;6.440;2023-02-02T06:27:47;6.90;99.90
19555;DHT22;9924;50.828;6.440;2023-02-02T06:30:32;6.80;99.90
19555;DHT22;9924;50.828;6.440;2023-02-02T06:33:16;6.80;99.90
19555;DHT22;9924;50.828;6.440;2023-02-02T06:36:02;6.80;99.90
19555;DHT22;9924;50.828;6.440;2023-02-02T06:38:48;6.80;99.90
19555;DHT22;9924;50.828;6.440;2023-02-02T06:41:34;6.80;99.90
19555;DHT22;9924;50.828;6.440;2023-02-02T06:44:18;6.70;99.90
19555;DHT22;9924;50.828;6.440;2023-02-02T06:47:03;6.70;99.90
19555;DHT22;9924;50.828;6.440;2023-02-02T06:49:48;6.60;99.90
19555;DHT22;9924;50.828;6.440;2023-02-02T06:52:36;6.60;99.90
19555;DHT22;9924;50.828;6.440;2023-02-02T06:55:20;6.50;99.90
19555;DHT22;9924;50.828;6.440;2023-02-02T06:58:05;6.50;99.90
19555;DHT22;9924;50.828;6.440;2023-02-02T07:00:49;6.60;99.90
19555;DHT22;9924;50.828;6.440;2023-02-02T07:03:37;6.60;99.90
19555;DHT22;9924;50.828;6.440;2023-02-02T07:06:26;6.60;99.90
19555;DHT22;9924;50.828;6.440;2023-02-02T07:09:11;6.60;99.90
19555;DHT22;9924;50.828;6.440;2023-02-02T07:11:55;6.60;99.90
19555;DHT22;9924;50.828;6.440;2023-02-02T07:14:39;6.60;99.90
19555;DHT22;9924;50.828;6.440;2023-02-02T07:17:24;6.60;99.90
19555;DHT22;9924;50.828;6.440;2023-02-02T07:20:09;6.70;99.90
19555;DHT22;9924;50.828;6.440;2023-02-02T07:22:53;6.60;99.90
19555;DHT22;9924;50.828;6.440;2023-02-02T07:25:38;6.70;99.90
19555;DHT22;9924;50.828;6.440;2023-02-02T07:28:27;6.70;99.90
19555;DHT22;9924;50.828;6.440;2023-02-02T07:31:23;6.70;99.90
19555;DHT22;9924;50.828;6.440;2023-02-02T07:34:08;6.70;99.90
19555;DHT22;9924;50.828;6.440;2023-02-02T07:36:53;6.70;99.90
19555;DHT22;9924;50.828;6.440;2023-02-02T07:39:41;6.80;99.90
19555;DHT22;9924;50.828;6.440;2023-02-02T07:42:26;6.80;99.90
19555;DHT22;9924;50.828;6.440;2023-02-02T07:45:11;6.80;99.90
19555;DHT22;9924;50.828;6.440;2023-02-02T07:47:59;6.80;99.90
19555;DHT22;9924;50.828;6.440;2023-02-02T07:50:43;6.90;99.90
19555;DHT22;9924;50.828;6.440;2023-02-02T07:53:28;6.90;99.90
19555;DHT22;9924;50.828;6.440;2023-02-02T07:56:24;6.90;99.90
19555;DHT22;9924;50.828;6.440;2023-02-02T07:59:10;6.90;99.90
19555;DHT22;9924;50.828;6.440;2023-02-02T08:01:55;7.00;99.90
19555;DHT22;9924;50.828;6.440;2023-02-02T08:04:39;7.00;99.90
19555;DHT22;9924;50.828;6.440;2023-02-02T08:07:24;7.00;99.90
19555;DHT22;9924;50.828;6.440;2023-02-02T08:10:09;7.00;99.90
19555;DHT22;9924;50.828;6.440;2023-02-02T08:12:53;7.00;99.90
19555;DHT22;9924;50.828;6.440;2023-02-02T08:15:40;7.00;99.90
19555;DHT22;9924;50.828;6.440;2023-02-02T08:18:25;7.00;99.90
19555;DHT22;9924;50.828;6.440;2023-02-02T08:21:11;7.00;99.90
19555;DHT22;9924;50.828;6.440;2023-02-02T08:23:56;7.10;99.90
19555;DHT22;9924;50.828;6.440;2023-02-02T08:26:40;7.10;99.90
19555;DHT22;9924;50.828;6.440;2023-02-02T08:29:25;7.10;99.90
19555;DHT22;9924;50.828;6.440;2023-02-02T08:32:09;7.10;99.90
19555;DHT22;9924;50.828;6.440;2023-02-02T08:34:54;7.10;99.90
19555;DHT22;9924;50.828;6.440;2023-02-02T08:37:38;7.10;99.90
19555;DHT22;9924;50.828;6.440;2023-02-02T08:40:22;7.10;99.90
19555;DHT22;9924;50.828;6.440;2023-02-02T08:43:08;7.10;99.90
19555;DHT22;9924;50.828;6.440;2023-02-02T08:45:52;7.10;99.90
19555;DHT22;9924;50.828;6.440;2023-02-02T08:48:40;7.20;99.90
19555;DHT22;9924;50.828;6.440;2023-02-02T08:51:25;7.20;99.90
19555;DHT22;9924;50.828;6.440;2023-02-02T08:54:09;7.20;99.90
19555;DHT22;9924;50.828;6.440;2023-02-02T08:56:53;7.20;99.90
19555;DHT22;9924;50.828;6.440;2023-02-02T08:59:38;7.20;99.90
19555;DHT22;9924;50.828;6.440;2023-02-02T09:02:22;7.20;99.90
19555;DHT22;9924;50.828;6.440;2023-02-02T09:05:07;7.30;99.90
19555;DHT22;9924;50.828;6.440;2023-02-02T09:07:51;7.20;99.90
19555;DHT22;9924;50.828;6.440;2023-02-02T09:10:36;7.20;99.90
19555;DHT22;9924;50.828;6.440;2023-02-02T09:13:20;7.30;99.90
19555;DHT22;9924;50.828;6.440;2023-02-02T09:16:07;7.30;99.90
19555;DHT22;9924;50.828;6.440;2023-02-02T09:18:52;7.40;99.90
19555;DHT22;9924;50.828;6.440;2023-02-02T09:21:37;7.40;99.90
19555;DHT22;9924;50.828;6.440;2023-02-02T09:24:23;7.40;99.90
19555;DHT22;9924;50.828;6.440;2023-02-02T09:27:07;7.40;99.90
19555;DHT22;9924;50.828;6.440;2023-02-02T09:29:51;7.40;99.90
19555;DHT22;9924;50.828;6.440;2023-02-02T09:32:36;7.40;99.90
19555;DHT22;9924;50.828;6.440;2023-02-02T09:35:21;7.40;99.90
19555;DHT22;9924;50.828;6.440;2023-02-02T09:38:05;7.40;99.90
19555;DHT22;9924;50.828;6.440;2023-02-02T09:40:50;7.40;99.90
19555;DHT22;9924;50.828;6.440;2023-02-02T09:43:50;7.50;99.90
19555;DHT22;9924;50.828;6.440;2023-02-02T09:47:11;7.50;99.90
19555;DHT22;9924;50.828;6.440;2023-02-02T09:55:51;7.50;99.90
19555;DHT22;9924;50.828;6.440;2023-02-02T09:58:47;7.50;99.90
19555;DHT22;9924;50.828;6.440;2023-02-02T10:01:35;7.40;99.90
19555;DHT22;9924;50.828;6.440;2023-02-02T10:04:36;7.40;99.90
19555;DHT22;9924;50.828;6.440;2023-02-02T10:07:33;7.40;99.90
19555;DHT22;9924;50.828;6.440;2023-02-02T10:10:26;7.40;99.90
19555;DHT22;9924;50.828;6.440;2023-02-02T10:13:33;7.40;99.90
19555;DHT22;9924;50.828;6.440;2023-02-02T10:16:21;7.40;99.90
19555;DHT22;9924;50.828;6.440;2023-02-02T10:19:13;7.40;99.90
19555;DHT22;9924;50.828;6.440;2023-02-02T10:24:47;7.40;99.90
19555;DHT22;9924;50.828;6.440;2023-02-02T10:27:39;7.40;99.90
19555;DHT22;9924;50.828;6.440;2023-02-02T10:30:57;7.40;99.90
19555;DHT22;9924;50.828;6.440;2023-02-02T10:33:53;7.40;99.90
19555;DHT22;9924;50.828;6.440;2023-02-02T10:36:54;7.40;99.90
19555;DHT22;9924;50.828;6.440;2023-02-02T10:39:56;7.50;99.90
19555;DHT22;9924;50.828;6.440;2023-02-02T10:42:51;7.50;99.90
19555;DHT22;9924;50.828;6.440;2023-02-02T10:45:56;7.60;99.90
19555;DHT22;9924;50.828;6.440;2023-02-02T10:48:44;7.70;99.90
19555;DHT22;9924;50.828;6.440;2023-02-02T10:51:29;7.70;99.90
19555;DHT22;9924;50.828;6.440;2023-02-02T10:54:31;7.70;99.90
19555;DHT22;9924;50.828;6.440;2023-02-02T10:57:29;7.80;99.90
19555;DHT22;9924;50.828;6.440;2023-02-02T11:03:00;8.00;99.90
19555;DHT22;9924;50.828;6.440;2023-02-02T11:05:47;8.40;99.90
19555;DHT22;9924;50.828;6.440;2023-02-02T11:08:52;8.50;99.90
19555;DHT22;9924;50.828;6.440;2023-02-02T11:11:41;8.40;99.90
19555;DHT22;9924;50.828;6.440;2023-02-02T11:15:00;8.50;99.90
19555;DHT22;9924;50.828;6.440;2023-02-02T11:17:53;8.60;99.90
19555;DHT22;9924;50.828;6.440;2023-02-02T11:20:38;8.40;99.90
19555;DHT22;9924;50.828;6.440;2023-02-02T11:23:25;8.40;99.90
19555;DHT22;9924;50.828;6.440;2023-02-02T11:26:11;8.30;99.90
19555;DHT22;9924;50.828;6.440;2023-02-02T11:28:56;8.40;99.90
19555;DHT22;9924;50.828;6.440;2023-02-02T11:31:41;8.40;99.90
19555;DHT22;9924;50.828;6.440;2023-02-02T11:34:26;8.40;99.90
19555;DHT22;9924;50.828;6.440;2023-02-02T11:37:19;8.50;99.90
19555;DHT22;9924;50.828;6.440;2023-02-02T11:40:27;8.60;99.90
19555;DHT22;9924;50.828;6.440;2023-02-02T11:43:31;8.70;99.90
19555;DHT22;9924;50.828;6.440;2023-02-02T11:46:22;8.60;99.90
19555;DHT22;9924;50.828;6.440;2023-02-02T11:49:15;8.60;99.90
19555;DHT22;9924;50.828;6.440;2023-02-02T11:52:05;8.70;99.90
19555;DHT22;9924;50.828;6.440;2023-02-02T11:54:58;8.80;99.90
19555;DHT22;9924;50.828;6.440;2023-02-02T11:58:19;8.90;99.90
19555;DHT22;9924;50.828;6.440;2023-02-02T12:01:21;9.00;99.90
19555;DHT22;9924;50.828;6.440;2023-02-02T12:06:57;8.90;99.90
19555;DHT22;9924;50.828;6.440;2023-02-02T12:09:45;8.80;99.90
19555;DHT22;9924;50.828;6.440;2023-02-02T12:12:44;8.80;99.90
19555;DHT22;9924;50.828;6.440;2023-02-02T12:22:03;8.60;99.90
19555;DHT22;9924;50.828;6.440;2023-02-02T12:24:56;9.00;99.90
19555;DHT22;9924;50.828;6.440;2023-02-02T12:27:48;9.20;99.90
19555;DHT22;9924;50.828;6.440;2023-02-02T12:43:33;10.00;99.90
19555;DHT22;9924;50.828;6.440;2023-02-02T12:55:51;9.30;99.90
19555;DHT22;9924;50.828;6.440;2023-02-02T13:07:18;9.60;99.90
19555;DHT22;9924;50.828;6.440;2023-02-02T13:13:00;10.00;99.90
19555;DHT22;9924;50.828;6.440;2023-02-02T13:15:51;10.20;99.90
19555;DHT22;9924;50.828;6.440;2023-02-02T13:18:50;10.30;99.90
19555;DHT22;9924;50.828;6.440;2023-02-02T13:21:38;10.50;99.90
19555;DHT22;9924;50.828;6.440;2023-02-02T13:24:28;10.30;99.90
19555;DHT22;9924;50.828;6.440;2023-02-02T13:27:18;10.50;99.90
19555;DHT22;9924;50.828;6.440;2023-02-02T13:30:27;10.30;99.90
19555;DHT22;9924;50.828;6.440;2023-02-02T13:33:20;10.10;99.90
19555;DHT22;9924;50.828;6.440;2023-02-02T13:36:17;10.00;99.90
19555;DHT22;9924;50.828;6.440;2023-02-02T13:39:19;10.20;99.90
19555;DHT22;9924;50.828;6.440;2023-02-02T13:42:29;10.40;99.90
19555;DHT22;9924;50.828;6.440;2023-02-02T13:45:42;10.40;99.90
19555;DHT22;9924;50.828;6.440;2023-02-02T14:01:03;10.70;99.90
19555;DHT22;9924;50.828;6.440;2023-02-02T14:03:56;10.50;99.90
19555;DHT22;9924;50.828;6.440;2023-02-02T14:09:40;10.40;99.90
19555;DHT22;9924;50.828;6.440;2023-02-02T14:12:31;10.20;99.90
19555;DHT22;9924;50.828;6.440;2023-02-02T14:15:17;10.00;99.90
19555;DHT22;9924;50.828;6.440;2023-02-02T14:18:02;9.80;99.90
19555;DHT22;9924;50.828;6.440;2023-02-02T14:20:47;9.70;99.90
19555;DHT22;9924;50.828;6.440;2023-02-02T14:23:52;9.60;99.90
19555;DHT22;9924;50.828;6.440;2023-02-02T14:26:46;9.60;99.90
19555;DHT22;9924;50.828;6.440;2023-02-02T14:38:07;9.40;99.90
19555;DHT22;9924;50.828;6.440;2023-02-02T14:44:23;9.40;99.90
19555;DHT22;9924;50.828;6.440;2023-02-02T14:47:41;9.40;99.90
19555;DHT22;9924;50.828;6.440;2023-02-02T14:50:59;9.50;99.90
19555;DHT22;9924;50.828;6.440;2023-02-02T14:53:49;9.50;99.90
19555;DHT22;9924;50.828;6.440;2023-02-02T14:56:39;9.60;99.90
19555;DHT22;9924;50.828;6.440;2023-02-02T14:59:38;9.70;99.90
19555;DHT22;9924;50.828;6.440;2023-02-02T15:02:30;10.00;99.90
19555;DHT22;9924;50.828;6.440;2023-02-02T15:11:07;9.90;99.90
19555;DHT22;9924;50.828;6.440;2023-02-02T15:14:17;9.80;99.90
19555;DHT22;9924;50.828;6.440;2023-02-02T15:17:18;9.70;99.90
19555;DHT22;9924;50.828;6.440;2023-02-02T15:20:27;9.60;99.90
19555;DHT22;9924;50.828;6.440;2023-02-02T15:23:39;9.50;99.90
19555;DHT22;9924;50.828;6.440;2023-02-02T15:26:26;9.50;99.90
19555;DHT22;9924;50.828;6.440;2023-02-02T15:29:39;9.50;99.90
19555;DHT22;9924;50.828;6.440;2023-02-02T15:32:34;9.60;99.90
19555;DHT22;9924;50.828;6.440;2023-02-02T15:35:26;9.50;99.90
19555;DHT22;9924;50.828;6.440;2023-02-02T15:38:15;9.40;99.90
19555;DHT22;9924;50.828;6.440;2023-02-02T15:41:23;9.40;99.90
19555;DHT22;9924;50.828;6.440;2023-02-02T15:44:26;9.30;99.90
19555;DHT22;9924;50.828;6.440;2023-02-02T15:47:19;9.30;99.90
19555;DHT22;9924;50.828;6.440;2023-02-02T15:50:18;9.30;99.90
19555;DHT22;9924;50.828;6.440;2023-02-02T15:53:03;9.20;99.90
19555;DHT22;9924;50.828;6.440;2023-02-02T15:55:48;9.10;99.90
19555;DHT22;9924;50.828;6.440;2023-02-02T15:58:37;9.10;99.90
19555;DHT22;9924;50.828;6.440;2023-02-02T16:01:23;9.00;99.90
19555;DHT22;9924;50.828;6.440;2023-02-02T16:04:16;8.90;99.90
19555;DHT22;9924;50.828;6.440;2023-02-02T16:07:10;8.90;99.90
19555;DHT22;9924;50.828;6.440;2023-02-02T16:09:55;8.90;99.90
19555;DHT22;9924;50.828;6.440;2023-02-02T16:12:44;8.90;99.90
19555;DHT22;9924;50.828;6.440;2023-02-02T16:15:29;8.90;99.90
19555;DHT22;9924;50.828;6.440;2023-02-02T16:18:17;8.90;99.90
19555;DHT22;9924;50.828;6.440;2023-02-02T16:21:08;8.90;99.90
19555;DHT22;9924;50.828;6.440;2023-02-02T16:23:59;8.80;99.90
19555;DHT22;9924;50.828;6.440;2023-02-02T16:26:52;8.80;99.90
19555;DHT22;9924;50.828;6.440;2023-02-02T16:29:38;8.80;99.90
19555;DHT22;9924;50.828;6.440;2023-02-02T16:32:31;8.80;99.90
19555;DHT22;9924;50.828;6.440;2023-02-02T16:35:46;8.80;99.90
19555;DHT22;9924;50.828;6.440;2023-02-02T16:38:35;8.90;99.90
19555;DHT22;9924;50.828;6.440;2023-02-02T16:41:31;8.80;99.90
19555;DHT22;9924;50.828;6.440;2023-02-02T16:44:37;8.90;99.90
19555;DHT22;9924;50.828;6.440;2023-02-02T16:50:18;8.80;99.90
19555;DHT22;9924;50.828;6.440;2023-02-02T16:53:04;8.80;99.90
19555;DHT22;9924;50.828;6.440;2023-02-02T16:55:49;8.80;99.90
19555;DHT22;9924;50.828;6.440;2023-02-02T16:58:38;8.70;99.90
19555;DHT22;9924;50.828;6.440;2023-02-02T17:01:42;8.60;99.90
19555;DHT22;9924;50.828;6.440;2023-02-02T17:04:32;8.60;99.90
19555;DHT22;9924;50.828;6.440;2023-02-02T17:07:17;8.50;99.90
19555;DHT22;9924;50.828;6.440;2023-02-02T17:10:17;8.40;99.90
19555;DHT22;9924;50.828;6.440;2023-02-02T17:16:17;8.50;99.90
19555;DHT22;9924;50.828;6.440;2023-02-02T17:19:02;8.60;99.90
19555;DHT22;9924;50.828;6.440;2023-02-02T17:21:46;8.60;99.90
19555;DHT22;9924;50.828;6.440;2023-02-02T17:24:32;8.70;99.90
19555;DHT22;9924;50.828;6.440;2023-02-02T17:27:29;8.60;99.90
19555;DHT22;9924;50.828;6.440;2023-02-02T17:30:16;8.70;99.90
19555;DHT22;9924;50.828;6.440;2023-02-02T17:33:00;8.70;99.90
19555;DHT22;9924;50.828;6.440;2023-02-02T17:35:45;8.70;99.90
19555;DHT22;9924;50.828;6.440;2023-02-02T17:38:30;8.70;99.90
19555;DHT22;9924;50.828;6.440;2023-02-02T17:41:15;8.70;99.90
19555;DHT22;9924;50.828;6.440;2023-02-02T17:43:59;8.80;99.90
19555;DHT22;9924;50.828;6.440;2023-02-02T17:46:46;8.80;99.90
19555;DHT22;9924;50.828;6.440;2023-02-02T17:49:30;8.80;99.90
19555;DHT22;9924;50.828;6.440;2023-02-02T17:52:15;8.80;99.90
19555;DHT22;9924;50.828;6.440;2023-02-02T17:54:59;8.80;99.90
19555;DHT22;9924;50.828;6.440;2023-02-02T17:57:44;8.80;99.90
19555;DHT22;9924;50.828;6.440;2023-02-02T18:00:29;8.80;99.90
19555;DHT22;9924;50.828;6.440;2023-02-02T18:03:26;8.90;99.90
19555;DHT22;9924;50.828;6.440;2023-02-02T18:06:14;8.90;99.90
19555;DHT22;9924;50.828;6.440;2023-02-02T18:08:58;8.90;99.90
19555;DHT22;9924;50.828;6.440;2023-02-02T18:11:44;8.90;99.90
19555;DHT22;9924;50.828;6.440;2023-02-02T18:14:29;8.90;99.90
19555;DHT22;9924;50.828;6.440;2023-02-02T18:17:13;8.90;99.90
19555;DHT22;9924;50.828;6.440;2023-02-02T18:20:00;8.90;99.90
19555;DHT22;9924;50.828;6.440;2023-02-02T18:22:45;8.90;99.90
19555;DHT22;9924;50.828;6.440;2023-02-02T18:25:31;8.90;99.90
19555;DHT22;9924;50.828;6.440;2023-02-02T18:28:16;8.90;99.90
19555;DHT22;9924;50.828;6.440;2023-02-02T18:31:07;8.80;99.90
19555;DHT22;9924;50.828;6.440;2023-02-02T18:33:52;8.90;99.90
19555;DHT22;9924;50.828;6.440;2023-02-02T18:36:37;8.90;99.90
19555;DHT22;9924;50.828;6.440;2023-02-02T18:39:24;8.90;99.90
19555;DHT22;9924;50.828;6.440;2023-02-02T18:42:08;8.90;99.90
19555;DHT22;9924;50.828;6.440;2023-02-02T18:44:56;8.90;99.90
19555;DHT22;9924;50.828;6.440;2023-02-02T18:47:44;8.90;99.90
19555;DHT22;9924;50.828;6.440;2023-02-02T18:50:29;8.80;99.90
19555;DHT22;9924;50.828;6.440;2023-02-02T18:53:16;8.80;99.90
19555;DHT22;9924;50.828;6.440;2023-02-02T18:56:09;8.80;99.90
19555;DHT22;9924;50.828;6.440;2023-02-02T18:58:54;8.90;99.90
19555;DHT22;9924;50.828;6.440;2023-02-02T19:01:39;8.80;99.90
19555;DHT22;9924;50.828;6.440;2023-02-02T19:04:24;8.80;99.90
19555;DHT22;9924;50.828;6.440;2023-02-02T19:07:08;8.80;99.90
19555;DHT22;9924;50.828;6.440;2023-02-02T19:10:11;8.80;99.90
19555;DHT22;9924;50.828;6.440;2023-02-02T19:12:56;8.80;99.90
19555;DHT22;9924;50.828;6.440;2023-02-02T19:15:41;8.70;99.90
19555;DHT22;9924;50.828;6.440;2023-02-02T19:18:25;8.70;99.90
19555;DHT22;9924;50.828;6.440;2023-02-02T19:21:11;8.70;99.90
19555;DHT22;9924;50.828;6.440;2023-02-02T19:23:56;8.70;99.90
19555;DHT22;9924;50.828;6.440;2023-02-02T19:26:52;8.60;99.90
19555;DHT22;9924;50.828;6.440;2023-02-02T19:29:40;8.60;99.90
19555;DHT22;9924;50.828;6.440;2023-02-02T19:32:30;8.60;99.90
19555;DHT22;9924;50.828;6.440;2023-02-02T19:35:19;8.60;99.90
19555;DHT22;9924;50.828;6.440;2023-02-02T19:38:15;8.70;99.90
19555;DHT22;9924;50.828;6.440;2023-02-02T19:41:00;8.60;99.90
19555;DHT22;9924;50.828;6.440;2023-02-02T19:43:54;8.70;99.90
19555;DHT22;9924;50.828;6.440;2023-02-02T19:46:46;8.70;99.90
19555;DHT22;9924;50.828;6.440;2023-02-02T19:49:35;8.60;99.90
19555;DHT22;9924;50.828;6.440;2023-02-02T19:52:24;8.70;99.90
19555;DHT22;9924;50.828;6.440;2023-02-02T19:55:34;8.60;99.90
19555;DHT22;9924;50.828;6.440;2023-02-02T19:58:23;8.60;99.90
19555;DHT22;9924;50.828;6.440;2023-02-02T20:01:17;8.60;99.90
19555;DHT22;9924;50.828;6.440;2023-02-02T20:04:04;8.70;99.90
19555;DHT22;9924;50.828;6.440;2023-02-02T20:06:55;8.60;99.90
19555;DHT22;9924;50.828;6.440;2023-02-02T20:09:40;8.50;99.90
19555;DHT22;9924;50.828;6.440;2023-02-02T20:12:27;8.60;99.90
19555;DHT22;9924;50.828;6.440;2023-02-02T20:15:27;8.60;99.90
19555;DHT22;9924;50.828;6.440;2023-02-02T20:18:25;8.60;99.90
19555;DHT22;9924;50.828;6.440;2023-02-02T20:21:39;8.60;99.90
19555;DHT22;9924;50.828;6.440;2023-02-02T20:24:36;8.60;99.90
19555;DHT22;9924;50.828;6.440;2023-02-02T20:27:25;8.60;99.90
19555;DHT22;9924;50.828;6.440;2023-02-02T20:30:23;8.60;99.90